sensor_id;sensor_type;location;lat;lon;timestamp;P1;durP1;ratioP1;P2;durP2;ratioP2
20363;SDS011;10340;53.664;9.908;2022-12-22T00:02:02;23.95;;;15.02;;
20363;SDS011;10340;53.664;9.908;2022-12-22T00:04:52;23.90;;;15.20;;
20363;SDS011;10340;53.664;9.908;2022-12-22T00:07:37;22.80;;;15.88;;
20363;SDS011;10340;53.664;9.908;2022-12-22T00:10:21;25.30;;;15.13;;
20363;SDS011;10340;53.664;9.908;2022-12-22T00:13:07;26.48;;;15.60;;
20363;SDS011;10340;53.664;9.908;2022-12-22T00:15:52;27.33;;;14.10;;
20363;SDS011;10340;53.664;9.908;2022-12-22T00:18:38;22.77;;;14.50;;
20363;SDS011;10340;53.664;9.908;2022-12-22T00:21:22;20.80;;;14.05;;
20363;SDS011;10340;53.664;9.908;2022-12-22T00:24:06;20.70;;;14.35;;
20363;SDS011;10340;53.664;9.908;2022-12-22T00:26:52;19.80;;;12.90;;
20363;SDS011;10340;53.664;9.908;2022-12-22T00:29:37;19.73;;;13.13;;
20363;SDS011;10340;53.664;9.908;2022-12-22T00:32:24;18.67;;;12.70;;
20363;SDS011;10340;53.664;9.908;2022-12-22T00:35:16;18.50;;;12.95;;
20363;SDS011;10340;53.664;9.908;2022-12-22T00:38:07;19.42;;;12.85;;
20363;SDS011;10340;53.664;9.908;2022-12-22T00:40:56;20.80;;;13.30;;
20363;SDS011;10340;53.664;9.908;2022-12-22T00:43:40;20.05;;;13.82;;
20363;SDS011;10340;53.664;9.908;2022-12-22T00:46:24;16.88;;;11.88;;
20363;SDS011;10340;53.664;9.908;2022-12-22T00:49:09;18.73;;;12.88;;
20363;SDS011;10340;53.664;9.908;2022-12-22T00:51:55;19.65;;;12.38;;
20363;SDS011;10340;53.664;9.908;2022-12-22T00:54:40;18.55;;;12.23;;
20363;SDS011;10340;53.664;9.908;2022-12-22T00:57:24;15.90;;;12.18;;
20363;SDS011;10340;53.664;9.908;2022-12-22T01:00:13;15.60;;;12.50;;
20363;SDS011;10340;53.664;9.908;2022-12-22T01:02:59;15.15;;;11.30;;
20363;SDS011;10340;53.664;9.908;2022-12-22T01:05:43;17.45;;;11.38;;
20363;SDS011;10340;53.664;9.908;2022-12-22T01:08:29;17.05;;;12.07;;
20363;SDS011;10340;53.664;9.908;2022-12-22T01:11:14;17.73;;;11.90;;
20363;SDS011;10340;53.664;9.908;2022-12-22T01:13:59;18.23;;;12.43;;
20363;SDS011;10340;53.664;9.908;2022-12-22T01:16:43;17.88;;;12.48;;
20363;SDS011;10340;53.664;9.908;2022-12-22T01:19:27;18.88;;;12.05;;
20363;SDS011;10340;53.664;9.908;2022-12-22T01:22:12;16.00;;;12.38;;
20363;SDS011;10340;53.664;9.908;2022-12-22T01:25:04;16.95;;;12.77;;
20363;SDS011;10340;53.664;9.908;2022-12-22T01:27:53;17.70;;;12.82;;
20363;SDS011;10340;53.664;9.908;2022-12-22T01:30:37;18.10;;;13.02;;
20363;SDS011;10340;53.664;9.908;2022-12-22T01:33:22;17.88;;;12.18;;
20363;SDS011;10340;53.664;9.908;2022-12-22T01:36:06;16.95;;;11.57;;
20363;SDS011;10340;53.664;9.908;2022-12-22T01:38:51;17.50;;;12.70;;
20363;SDS011;10340;53.664;9.908;2022-12-22T01:41:36;15.75;;;12.60;;
20363;SDS011;10340;53.664;9.908;2022-12-22T01:44:21;17.35;;;13.27;;
20363;SDS011;10340;53.664;9.908;2022-12-22T01:50:14;19.40;;;13.55;;
20363;SDS011;10340;53.664;9.908;2022-12-22T01:53:00;18.23;;;13.23;;
20363;SDS011;10340;53.664;9.908;2022-12-22T01:55:45;20.55;;;13.23;;
20363;SDS011;10340;53.664;9.908;2022-12-22T01:58:32;19.02;;;13.65;;
20363;SDS011;10340;53.664;9.908;2022-12-22T02:01:21;18.05;;;13.90;;
20363;SDS011;10340;53.664;9.908;2022-12-22T02:04:06;17.00;;;13.07;;
20363;SDS011;10340;53.664;9.908;2022-12-22T02:06:50;16.17;;;12.68;;
20363;SDS011;10340;53.664;9.908;2022-12-22T02:09:45;20.20;;;14.50;;
20363;SDS011;10340;53.664;9.908;2022-12-22T02:12:38;19.45;;;13.85;;
20363;SDS011;10340;53.664;9.908;2022-12-22T02:15:31;18.95;;;13.10;;
20363;SDS011;10340;53.664;9.908;2022-12-22T02:18:26;18.60;;;14.05;;
20363;SDS011;10340;53.664;9.908;2022-12-22T02:21:15;18.90;;;14.43;;
20363;SDS011;10340;53.664;9.908;2022-12-22T02:24:06;19.90;;;14.65;;
20363;SDS011;10340;53.664;9.908;2022-12-22T02:30:08;17.95;;;12.48;;
20363;SDS011;10340;53.664;9.908;2022-12-22T02:32:55;18.02;;;13.75;;
20363;SDS011;10340;53.664;9.908;2022-12-22T02:35:44;18.10;;;12.60;;
20363;SDS011;10340;53.664;9.908;2022-12-22T02:38:38;19.65;;;13.13;;
20363;SDS011;10340;53.664;9.908;2022-12-22T02:41:30;17.02;;;13.15;;
20363;SDS011;10340;53.664;9.908;2022-12-22T02:44:26;16.42;;;12.98;;
20363;SDS011;10340;53.664;9.908;2022-12-22T02:47:32;16.52;;;12.88;;
20363;SDS011;10340;53.664;9.908;2022-12-22T02:50:26;14.25;;;12.30;;
20363;SDS011;10340;53.664;9.908;2022-12-22T02:53:15;17.73;;;13.27;;
20363;SDS011;10340;53.664;9.908;2022-12-22T02:56:14;16.08;;;12.32;;
20363;SDS011;10340;53.664;9.908;2022-12-22T02:59:04;17.60;;;12.57;;
20363;SDS011;10340;53.664;9.908;2022-12-22T03:01:53;19.58;;;13.05;;
20363;SDS011;10340;53.664;9.908;2022-12-22T03:04:48;16.67;;;12.60;;
20363;SDS011;10340;53.664;9.908;2022-12-22T03:07:43;13.15;;;11.25;;
20363;SDS011;10340;53.664;9.908;2022-12-22T03:10:28;14.73;;;11.13;;
20363;SDS011;10340;53.664;9.908;2022-12-22T03:13:13;13.18;;;11.25;;
20363;SDS011;10340;53.664;9.908;2022-12-22T03:15:59;12.63;;;10.70;;
20363;SDS011;10340;53.664;9.908;2022-12-22T03:21:52;15.35;;;11.15;;
20363;SDS011;10340;53.664;9.908;2022-12-22T03:24:38;14.35;;;11.45;;
20363;SDS011;10340;53.664;9.908;2022-12-22T03:27:24;14.77;;;11.02;;
20363;SDS011;10340;53.664;9.908;2022-12-22T03:32:41;12.70;;;10.23;;
20363;SDS011;10340;53.664;9.908;2022-12-22T03:35:10;12.57;;;10.85;;
20363;SDS011;10340;53.664;9.908;2022-12-22T03:38:02;13.63;;;10.70;;
20363;SDS011;10340;53.664;9.908;2022-12-22T03:40:30;13.18;;;10.55;;
20363;SDS011;10340;53.664;9.908;2022-12-22T03:42:58;12.25;;;10.13;;
20363;SDS011;10340;53.664;9.908;2022-12-22T03:45:44;15.45;;;10.98;;
20363;SDS011;10340;53.664;9.908;2022-12-22T03:48:28;13.07;;;10.23;;
20363;SDS011;10340;53.664;9.908;2022-12-22T03:51:12;11.80;;;9.95;;
20363;SDS011;10340;53.664;9.908;2022-12-22T03:53:40;10.98;;;9.32;;
20363;SDS011;10340;53.664;9.908;2022-12-22T03:56:09;12.73;;;10.40;;
20363;SDS011;10340;53.664;9.908;2022-12-22T03:58:44;10.40;;;9.35;;
20363;SDS011;10340;53.664;9.908;2022-12-22T04:01:12;11.63;;;10.18;;
20363;SDS011;10340;53.664;9.908;2022-12-22T04:03:53;12.95;;;9.63;;
20363;SDS011;10340;53.664;9.908;2022-12-22T04:06:25;12.38;;;10.02;;
20363;SDS011;10340;53.664;9.908;2022-12-22T04:08:52;11.30;;;9.98;;
20363;SDS011;10340;53.664;9.908;2022-12-22T04:11:19;11.18;;;9.73;;
20363;SDS011;10340;53.664;9.908;2022-12-22T04:14:04;14.23;;;10.13;;
20363;SDS011;10340;53.664;9.908;2022-12-22T04:16:33;12.82;;;9.88;;
20363;SDS011;10340;53.664;9.908;2022-12-22T04:19:03;13.40;;;10.80;;
20363;SDS011;10340;53.664;9.908;2022-12-22T04:21:36;12.13;;;10.02;;
20363;SDS011;10340;53.664;9.908;2022-12-22T04:24:04;14.27;;;11.55;;
20363;SDS011;10340;53.664;9.908;2022-12-22T04:26:31;15.32;;;11.35;;
20363;SDS011;10340;53.664;9.908;2022-12-22T04:29:00;16.55;;;11.25;;
20363;SDS011;10340;53.664;9.908;2022-12-22T04:31:33;13.25;;;10.65;;
20363;SDS011;10340;53.664;9.908;2022-12-22T04:34:04;13.48;;;11.27;;
20363;SDS011;10340;53.664;9.908;2022-12-22T04:36:31;14.57;;;11.52;;
20363;SDS011;10340;53.664;9.908;2022-12-22T04:39:00;15.68;;;11.52;;
20363;SDS011;10340;53.664;9.908;2022-12-22T04:41:27;13.00;;;10.40;;
20363;SDS011;10340;53.664;9.908;2022-12-22T04:43:54;12.60;;;10.90;;
20363;SDS011;10340;53.664;9.908;2022-12-22T04:46:26;13.88;;;11.25;;
20363;SDS011;10340;53.664;9.908;2022-12-22T04:48:58;14.65;;;11.00;;
20363;SDS011;10340;53.664;9.908;2022-12-22T04:51:27;12.52;;;10.73;;
20363;SDS011;10340;53.664;9.908;2022-12-22T04:53:54;13.10;;;10.75;;
20363;SDS011;10340;53.664;9.908;2022-12-22T04:56:22;13.15;;;10.77;;
20363;SDS011;10340;53.664;9.908;2022-12-22T04:58:49;11.25;;;9.88;;
20363;SDS011;10340;53.664;9.908;2022-12-22T05:01:17;13.82;;;10.20;;
20363;SDS011;10340;53.664;9.908;2022-12-22T05:03:44;14.13;;;11.38;;
20363;SDS011;10340;53.664;9.908;2022-12-22T05:06:12;12.70;;;9.88;;
20363;SDS011;10340;53.664;9.908;2022-12-22T05:08:40;11.13;;;9.93;;
20363;SDS011;10340;53.664;9.908;2022-12-22T05:11:07;11.73;;;10.50;;
20363;SDS011;10340;53.664;9.908;2022-12-22T05:13:36;12.73;;;9.73;;
20363;SDS011;10340;53.664;9.908;2022-12-22T05:16:04;12.70;;;10.18;;
20363;SDS011;10340;53.664;9.908;2022-12-22T05:18:32;11.75;;;9.80;;
20363;SDS011;10340;53.664;9.908;2022-12-22T05:21:01;11.38;;;9.15;;
20363;SDS011;10340;53.664;9.908;2022-12-22T05:23:29;11.68;;;9.70;;
20363;SDS011;10340;53.664;9.908;2022-12-22T05:25:56;13.60;;;10.77;;
20363;SDS011;10340;53.664;9.908;2022-12-22T05:28:23;11.63;;;9.75;;
20363;SDS011;10340;53.664;9.908;2022-12-22T05:30:52;12.30;;;10.20;;
20363;SDS011;10340;53.664;9.908;2022-12-22T05:33:22;12.52;;;10.43;;
20363;SDS011;10340;53.664;9.908;2022-12-22T05:35:49;11.65;;;9.90;;
20363;SDS011;10340;53.664;9.908;2022-12-22T05:38:17;13.88;;;10.35;;
20363;SDS011;10340;53.664;9.908;2022-12-22T05:40:44;14.07;;;10.98;;
20363;SDS011;10340;53.664;9.908;2022-12-22T05:43:11;13.77;;;10.57;;
20363;SDS011;10340;53.664;9.908;2022-12-22T05:45:39;12.63;;;10.40;;
20363;SDS011;10340;53.664;9.908;2022-12-22T05:48:07;13.65;;;10.23;;
20363;SDS011;10340;53.664;9.908;2022-12-22T05:50:34;12.75;;;10.55;;
20363;SDS011;10340;53.664;9.908;2022-12-22T05:53:04;13.55;;;10.07;;
20363;SDS011;10340;53.664;9.908;2022-12-22T05:55:32;12.77;;;10.25;;
20363;SDS011;10340;53.664;9.908;2022-12-22T05:58:00;13.95;;;10.82;;
20363;SDS011;10340;53.664;9.908;2022-12-22T06:00:29;15.25;;;11.98;;
20363;SDS011;10340;53.664;9.908;2022-12-22T06:02:57;14.95;;;11.02;;
20363;SDS011;10340;53.664;9.908;2022-12-22T06:05:26;15.45;;;12.10;;
20363;SDS011;10340;53.664;9.908;2022-12-22T06:07:53;14.75;;;11.32;;
20363;SDS011;10340;53.664;9.908;2022-12-22T06:10:20;17.38;;;13.07;;
20363;SDS011;10340;53.664;9.908;2022-12-22T06:12:47;16.35;;;12.77;;
20363;SDS011;10340;53.664;9.908;2022-12-22T06:15:14;17.13;;;11.77;;
20363;SDS011;10340;53.664;9.908;2022-12-22T06:17:42;19.23;;;12.57;;
20363;SDS011;10340;53.664;9.908;2022-12-22T06:20:09;16.58;;;13.10;;
20363;SDS011;10340;53.664;9.908;2022-12-22T06:22:38;15.75;;;11.10;;
20363;SDS011;10340;53.664;9.908;2022-12-22T06:25:05;21.40;;;13.00;;
20363;SDS011;10340;53.664;9.908;2022-12-22T06:27:32;18.27;;;12.50;;
20363;SDS011;10340;53.664;9.908;2022-12-22T06:30:00;16.98;;;12.73;;
20363;SDS011;10340;53.664;9.908;2022-12-22T06:32:27;18.67;;;12.40;;
20363;SDS011;10340;53.664;9.908;2022-12-22T06:34:54;18.27;;;13.02;;
20363;SDS011;10340;53.664;9.908;2022-12-22T06:37:21;19.17;;;13.43;;
20363;SDS011;10340;53.664;9.908;2022-12-22T06:39:50;19.33;;;13.27;;
20363;SDS011;10340;53.664;9.908;2022-12-22T06:42:17;16.95;;;13.77;;
20363;SDS011;10340;53.664;9.908;2022-12-22T06:45:01;16.85;;;12.57;;
20363;SDS011;10340;53.664;9.908;2022-12-22T06:47:29;17.73;;;13.27;;
20363;SDS011;10340;53.664;9.908;2022-12-22T06:49:56;17.95;;;13.70;;
20363;SDS011;10340;53.664;9.908;2022-12-22T06:52:23;17.73;;;14.10;;
20363;SDS011;10340;53.664;9.908;2022-12-22T06:54:52;21.10;;;14.52;;
20363;SDS011;10340;53.664;9.908;2022-12-22T06:57:19;18.98;;;14.27;;
20363;SDS011;10340;53.664;9.908;2022-12-22T06:59:46;19.58;;;14.88;;
20363;SDS011;10340;53.664;9.908;2022-12-22T07:02:13;16.85;;;13.60;;
20363;SDS011;10340;53.664;9.908;2022-12-22T07:04:40;18.08;;;14.00;;
20363;SDS011;10340;53.664;9.908;2022-12-22T07:07:09;20.40;;;15.10;;
20363;SDS011;10340;53.664;9.908;2022-12-22T07:09:36;18.15;;;14.07;;
20363;SDS011;10340;53.664;9.908;2022-12-22T07:12:07;19.60;;;14.57;;
20363;SDS011;10340;53.664;9.908;2022-12-22T07:14:39;18.15;;;13.60;;
20363;SDS011;10340;53.664;9.908;2022-12-22T07:17:06;18.80;;;13.63;;
20363;SDS011;10340;53.664;9.908;2022-12-22T07:19:34;17.38;;;13.23;;
20363;SDS011;10340;53.664;9.908;2022-12-22T07:22:01;18.15;;;13.80;;
20363;SDS011;10340;53.664;9.908;2022-12-22T07:24:29;18.58;;;13.85;;
20363;SDS011;10340;53.664;9.908;2022-12-22T07:26:58;17.30;;;14.35;;
20363;SDS011;10340;53.664;9.908;2022-12-22T07:29:26;17.60;;;13.90;;
20363;SDS011;10340;53.664;9.908;2022-12-22T07:31:54;19.30;;;14.43;;
20363;SDS011;10340;53.664;9.908;2022-12-22T07:34:21;18.25;;;14.13;;
20363;SDS011;10340;53.664;9.908;2022-12-22T07:36:48;18.98;;;13.05;;
20363;SDS011;10340;53.664;9.908;2022-12-22T07:39:15;18.15;;;14.05;;
20363;SDS011;10340;53.664;9.908;2022-12-22T07:41:42;18.63;;;14.05;;
20363;SDS011;10340;53.664;9.908;2022-12-22T07:44:28;17.50;;;13.63;;
20363;SDS011;10340;53.664;9.908;2022-12-22T07:46:56;17.90;;;14.13;;
20363;SDS011;10340;53.664;9.908;2022-12-22T07:49:23;20.08;;;14.55;;
20363;SDS011;10340;53.664;9.908;2022-12-22T07:52:08;20.92;;;14.82;;
20363;SDS011;10340;53.664;9.908;2022-12-22T07:54:35;20.77;;;15.45;;
20363;SDS011;10340;53.664;9.908;2022-12-22T07:57:02;19.65;;;14.98;;
20363;SDS011;10340;53.664;9.908;2022-12-22T07:59:30;19.83;;;14.13;;
20363;SDS011;10340;53.664;9.908;2022-12-22T08:01:57;17.88;;;13.45;;
20363;SDS011;10340;53.664;9.908;2022-12-22T08:04:24;17.55;;;14.00;;
20363;SDS011;10340;53.664;9.908;2022-12-22T08:06:51;18.95;;;14.00;;
20363;SDS011;10340;53.664;9.908;2022-12-22T08:09:18;18.73;;;13.55;;
20363;SDS011;10340;53.664;9.908;2022-12-22T08:11:47;18.35;;;14.95;;
20363;SDS011;10340;53.664;9.908;2022-12-22T08:14:14;18.45;;;14.40;;
20363;SDS011;10340;53.664;9.908;2022-12-22T08:16:43;16.88;;;13.25;;
20363;SDS011;10340;53.664;9.908;2022-12-22T08:19:10;18.13;;;13.10;;
20363;SDS011;10340;53.664;9.908;2022-12-22T08:21:37;16.45;;;12.32;;
20363;SDS011;10340;53.664;9.908;2022-12-22T08:24:04;18.10;;;13.82;;
20363;SDS011;10340;53.664;9.908;2022-12-22T08:26:33;15.35;;;12.63;;
20363;SDS011;10340;53.664;9.908;2022-12-22T08:29:04;15.90;;;12.15;;
20363;SDS011;10340;53.664;9.908;2022-12-22T08:31:36;15.80;;;12.40;;
20363;SDS011;10340;53.664;9.908;2022-12-22T08:34:07;13.02;;;10.95;;
20363;SDS011;10340;53.664;9.908;2022-12-22T08:36:39;14.48;;;11.40;;
20363;SDS011;10340;53.664;9.908;2022-12-22T08:39:09;13.52;;;11.10;;
20363;SDS011;10340;53.664;9.908;2022-12-22T08:41:38;13.25;;;10.95;;
20363;SDS011;10340;53.664;9.908;2022-12-22T08:44:15;14.02;;;11.40;;
20363;SDS011;10340;53.664;9.908;2022-12-22T08:46:43;13.60;;;11.07;;
20363;SDS011;10340;53.664;9.908;2022-12-22T08:49:11;15.27;;;11.45;;
20363;SDS011;10340;53.664;9.908;2022-12-22T08:51:38;15.25;;;10.98;;
20363;SDS011;10340;53.664;9.908;2022-12-22T08:54:05;15.10;;;11.18;;
20363;SDS011;10340;53.664;9.908;2022-12-22T08:56:32;13.00;;;11.60;;
20363;SDS011;10340;53.664;9.908;2022-12-22T08:59:00;13.40;;;10.30;;
20363;SDS011;10340;53.664;9.908;2022-12-22T09:01:32;14.00;;;10.77;;
20363;SDS011;10340;53.664;9.908;2022-12-22T09:04:00;13.38;;;10.25;;
20363;SDS011;10340;53.664;9.908;2022-12-22T09:06:29;14.77;;;10.13;;
20363;SDS011;10340;53.664;9.908;2022-12-22T09:08:58;12.75;;;10.38;;
20363;SDS011;10340;53.664;9.908;2022-12-22T09:11:26;14.73;;;11.82;;
20363;SDS011;10340;53.664;9.908;2022-12-22T09:13:55;11.70;;;9.43;;
20363;SDS011;10340;53.664;9.908;2022-12-22T09:16:23;12.88;;;9.68;;
20363;SDS011;10340;53.664;9.908;2022-12-22T09:18:52;11.25;;;9.25;;
20363;SDS011;10340;53.664;9.908;2022-12-22T09:21:19;12.10;;;10.13;;
20363;SDS011;10340;53.664;9.908;2022-12-22T09:23:48;12.63;;;10.02;;
20363;SDS011;10340;53.664;9.908;2022-12-22T09:26:16;13.57;;;10.45;;
20363;SDS011;10340;53.664;9.908;2022-12-22T09:28:45;10.80;;;8.73;;
20363;SDS011;10340;53.664;9.908;2022-12-22T09:31:12;11.02;;;8.73;;
20363;SDS011;10340;53.664;9.908;2022-12-22T09:33:40;12.85;;;9.27;;
20363;SDS011;10340;53.664;9.908;2022-12-22T09:36:09;11.35;;;9.27;;
20363;SDS011;10340;53.664;9.908;2022-12-22T09:38:41;10.88;;;9.00;;
20363;SDS011;10340;53.664;9.908;2022-12-22T09:41:20;10.32;;;7.90;;
20363;SDS011;10340;53.664;9.908;2022-12-22T09:43:53;10.43;;;8.88;;
20363;SDS011;10340;53.664;9.908;2022-12-22T09:46:21;12.95;;;9.20;;
20363;SDS011;10340;53.664;9.908;2022-12-22T09:48:51;14.23;;;10.02;;
20363;SDS011;10340;53.664;9.908;2022-12-22T09:51:19;13.50;;;10.40;;
20363;SDS011;10340;53.664;9.908;2022-12-22T09:53:49;13.25;;;9.90;;
20363;SDS011;10340;53.664;9.908;2022-12-22T09:56:20;16.33;;;11.18;;
20363;SDS011;10340;53.664;9.908;2022-12-22T09:58:48;16.27;;;12.07;;
20363;SDS011;10340;53.664;9.908;2022-12-22T10:01:24;16.92;;;11.77;;
20363;SDS011;10340;53.664;9.908;2022-12-22T10:04:03;17.60;;;12.30;;
20363;SDS011;10340;53.664;9.908;2022-12-22T10:06:38;17.40;;;11.75;;
20363;SDS011;10340;53.664;9.908;2022-12-22T10:09:14;16.45;;;12.10;;
20363;SDS011;10340;53.664;9.908;2022-12-22T10:11:53;18.17;;;13.02;;
20363;SDS011;10340;53.664;9.908;2022-12-22T10:14:23;19.75;;;13.50;;
20363;SDS011;10340;53.664;9.908;2022-12-22T10:17:06;20.13;;;13.65;;
20363;SDS011;10340;53.664;9.908;2022-12-22T10:19:40;19.98;;;13.07;;
20363;SDS011;10340;53.664;9.908;2022-12-22T10:22:12;20.83;;;13.32;;
20363;SDS011;10340;53.664;9.908;2022-12-22T10:24:47;22.02;;;13.77;;
20363;SDS011;10340;53.664;9.908;2022-12-22T10:27:16;22.33;;;14.45;;
20363;SDS011;10340;53.664;9.908;2022-12-22T10:29:45;21.88;;;13.30;;
20363;SDS011;10340;53.664;9.908;2022-12-22T10:32:12;19.60;;;13.27;;
20363;SDS011;10340;53.664;9.908;2022-12-22T10:37:28;20.13;;;12.35;;
20363;SDS011;10340;53.664;9.908;2022-12-22T10:39:57;18.63;;;12.20;;
20363;SDS011;10340;53.664;9.908;2022-12-22T10:42:38;23.13;;;13.93;;
20363;SDS011;10340;53.664;9.908;2022-12-22T10:45:15;21.30;;;13.55;;
20363;SDS011;10340;53.664;9.908;2022-12-22T10:47:45;21.35;;;13.18;;
20363;SDS011;10340;53.664;9.908;2022-12-22T10:50:14;20.83;;;13.48;;
20363;SDS011;10340;53.664;9.908;2022-12-22T10:52:41;22.63;;;14.85;;
20363;SDS011;10340;53.664;9.908;2022-12-22T10:55:17;23.30;;;13.75;;
20363;SDS011;10340;53.664;9.908;2022-12-22T10:57:47;21.05;;;13.68;;
20363;SDS011;10340;53.664;9.908;2022-12-22T11:00:21;20.13;;;13.93;;
20363;SDS011;10340;53.664;9.908;2022-12-22T11:02:50;21.88;;;14.30;;
20363;SDS011;10340;53.664;9.908;2022-12-22T11:05:18;20.52;;;14.07;;
20363;SDS011;10340;53.664;9.908;2022-12-22T11:07:46;22.35;;;13.93;;
20363;SDS011;10340;53.664;9.908;2022-12-22T11:10:17;20.60;;;12.90;;
20363;SDS011;10340;53.664;9.908;2022-12-22T11:13:05;20.25;;;13.38;;
20363;SDS011;10340;53.664;9.908;2022-12-22T11:15:44;20.52;;;14.25;;
20363;SDS011;10340;53.664;9.908;2022-12-22T11:18:23;20.02;;;13.00;;
20363;SDS011;10340;53.664;9.908;2022-12-22T11:21:01;18.40;;;13.10;;
20363;SDS011;10340;53.664;9.908;2022-12-22T11:23:32;19.50;;;12.88;;
20363;SDS011;10340;53.664;9.908;2022-12-22T11:26:07;19.80;;;13.70;;
20363;SDS011;10340;53.664;9.908;2022-12-22T11:28:50;21.13;;;13.30;;
20363;SDS011;10340;53.664;9.908;2022-12-22T11:31:35;19.05;;;13.02;;
20363;SDS011;10340;53.664;9.908;2022-12-22T11:34:18;19.77;;;13.63;;
20363;SDS011;10340;53.664;9.908;2022-12-22T11:37:04;18.83;;;12.65;;
20363;SDS011;10340;53.664;9.908;2022-12-22T11:39:42;19.20;;;13.55;;
20363;SDS011;10340;53.664;9.908;2022-12-22T11:42:21;17.60;;;12.45;;
20363;SDS011;10340;53.664;9.908;2022-12-22T11:45:02;18.65;;;11.98;;
20363;SDS011;10340;53.664;9.908;2022-12-22T11:47:43;16.25;;;11.70;;
20363;SDS011;10340;53.664;9.908;2022-12-22T11:50:24;16.25;;;10.75;;
20363;SDS011;10340;53.664;9.908;2022-12-22T11:53:11;16.20;;;10.63;;
20363;SDS011;10340;53.664;9.908;2022-12-22T11:56:11;13.55;;;10.13;;
20363;SDS011;10340;53.664;9.908;2022-12-22T11:58:55;17.98;;;12.77;;
20363;SDS011;10340;53.664;9.908;2022-12-22T12:01:55;15.88;;;11.43;;
20363;SDS011;10340;53.664;9.908;2022-12-22T12:04:38;15.52;;;11.65;;
20363;SDS011;10340;53.664;9.908;2022-12-22T12:07:24;14.90;;;10.70;;
20363;SDS011;10340;53.664;9.908;2022-12-22T12:10:02;18.35;;;11.25;;
20363;SDS011;10340;53.664;9.908;2022-12-22T12:12:42;15.00;;;11.23;;
20363;SDS011;10340;53.664;9.908;2022-12-22T12:15:19;16.50;;;11.45;;
20363;SDS011;10340;53.664;9.908;2022-12-22T12:18:01;16.50;;;10.90;;
20363;SDS011;10340;53.664;9.908;2022-12-22T12:20:57;17.77;;;11.63;;
20363;SDS011;10340;53.664;9.908;2022-12-22T12:26:43;16.08;;;10.93;;
20363;SDS011;10340;53.664;9.908;2022-12-22T12:29:17;16.75;;;11.50;;
20363;SDS011;10340;53.664;9.908;2022-12-22T12:31:47;19.88;;;12.05;;
20363;SDS011;10340;53.664;9.908;2022-12-22T12:34:22;14.23;;;11.02;;
20363;SDS011;10340;53.664;9.908;2022-12-22T12:36:52;13.50;;;10.80;;
20363;SDS011;10340;53.664;9.908;2022-12-22T12:39:25;15.55;;;12.00;;
20363;SDS011;10340;53.664;9.908;2022-12-22T12:42:01;13.55;;;10.57;;
20363;SDS011;10340;53.664;9.908;2022-12-22T12:44:35;13.10;;;10.63;;
20363;SDS011;10340;53.664;9.908;2022-12-22T12:47:05;14.80;;;11.57;;
20363;SDS011;10340;53.664;9.908;2022-12-22T12:49:55;13.52;;;10.70;;
20363;SDS011;10340;53.664;9.908;2022-12-22T12:55:52;11.85;;;8.75;;
20363;SDS011;10340;53.664;9.908;2022-12-22T12:58:46;12.43;;;8.95;;
20363;SDS011;10340;53.664;9.908;2022-12-22T13:10:20;9.10;;;6.68;;
20363;SDS011;10340;53.664;9.908;2022-12-22T13:12:49;8.63;;;6.43;;
20363;SDS011;10340;53.664;9.908;2022-12-22T13:15:27;10.63;;;7.25;;
20363;SDS011;10340;53.664;9.908;2022-12-22T13:17:55;8.25;;;5.72;;
20363;SDS011;10340;53.664;9.908;2022-12-22T13:20:24;7.53;;;6.03;;
20363;SDS011;10340;53.664;9.908;2022-12-22T13:22:53;9.40;;;6.38;;
20363;SDS011;10340;53.664;9.908;2022-12-22T13:25:23;11.10;;;6.78;;
20363;SDS011;10340;53.664;9.908;2022-12-22T13:27:56;9.75;;;6.65;;
20363;SDS011;10340;53.664;9.908;2022-12-22T13:30:24;8.30;;;6.22;;
20363;SDS011;10340;53.664;9.908;2022-12-22T13:32:55;10.27;;;6.13;;
20363;SDS011;10340;53.664;9.908;2022-12-22T13:35:35;9.57;;;6.07;;
20363;SDS011;10340;53.664;9.908;2022-12-22T13:38:05;9.23;;;5.50;;
20363;SDS011;10340;53.664;9.908;2022-12-22T13:40:39;9.55;;;6.05;;
20363;SDS011;10340;53.664;9.908;2022-12-22T13:43:09;9.43;;;6.32;;
20363;SDS011;10340;53.664;9.908;2022-12-22T13:45:42;10.55;;;5.85;;
20363;SDS011;10340;53.664;9.908;2022-12-22T13:48:12;9.00;;;5.88;;
20363;SDS011;10340;53.664;9.908;2022-12-22T13:50:42;9.95;;;5.78;;
20363;SDS011;10340;53.664;9.908;2022-12-22T13:53:17;12.70;;;6.18;;
20363;SDS011;10340;53.664;9.908;2022-12-22T13:55:53;8.10;;;5.63;;
20363;SDS011;10340;53.664;9.908;2022-12-22T13:58:23;9.48;;;5.63;;
20363;SDS011;10340;53.664;9.908;2022-12-22T14:00:59;10.25;;;5.63;;
20363;SDS011;10340;53.664;9.908;2022-12-22T14:03:27;12.88;;;5.70;;
20363;SDS011;10340;53.664;9.908;2022-12-22T14:05:54;10.70;;;5.50;;
20363;SDS011;10340;53.664;9.908;2022-12-22T14:08:21;10.40;;;5.75;;
20363;SDS011;10340;53.664;9.908;2022-12-22T14:10:49;14.80;;;7.00;;
20363;SDS011;10340;53.664;9.908;2022-12-22T14:13:20;12.85;;;7.22;;
20363;SDS011;10340;53.664;9.908;2022-12-22T14:15:57;11.88;;;6.20;;
20363;SDS011;10340;53.664;9.908;2022-12-22T14:18:25;7.72;;;5.60;;
20363;SDS011;10340;53.664;9.908;2022-12-22T14:20:53;11.32;;;6.00;;
20363;SDS011;10340;53.664;9.908;2022-12-22T14:23:22;9.10;;;5.07;;
20363;SDS011;10340;53.664;9.908;2022-12-22T14:25:52;10.20;;;5.75;;
20363;SDS011;10340;53.664;9.908;2022-12-22T14:28:22;10.88;;;5.28;;
20363;SDS011;10340;53.664;9.908;2022-12-22T14:30:53;9.98;;;6.22;;
20363;SDS011;10340;53.664;9.908;2022-12-22T14:33:26;9.57;;;6.18;;
20363;SDS011;10340;53.664;9.908;2022-12-22T14:36:03;12.77;;;6.97;;
20363;SDS011;10340;53.664;9.908;2022-12-22T14:38:41;10.37;;;6.27;;
20363;SDS011;10340;53.664;9.908;2022-12-22T14:41:10;10.38;;;5.93;;
20363;SDS011;10340;53.664;9.908;2022-12-22T14:43:59;8.77;;;5.97;;
20363;SDS011;10340;53.664;9.908;2022-12-22T14:46:27;10.07;;;6.28;;
20363;SDS011;10340;53.664;9.908;2022-12-22T14:48:56;7.60;;;5.70;;
20363;SDS011;10340;53.664;9.908;2022-12-22T14:51:24;11.18;;;6.40;;
20363;SDS011;10340;53.664;9.908;2022-12-22T14:53:52;9.70;;;6.53;;
20363;SDS011;10340;53.664;9.908;2022-12-22T14:56:22;11.70;;;6.47;;
20363;SDS011;10340;53.664;9.908;2022-12-22T14:59:06;9.52;;;5.95;;
20363;SDS011;10340;53.664;9.908;2022-12-22T15:01:37;7.47;;;5.53;;
20363;SDS011;10340;53.664;9.908;2022-12-22T15:04:05;11.13;;;6.50;;
20363;SDS011;10340;53.664;9.908;2022-12-22T15:06:41;7.65;;;5.55;;
20363;SDS011;10340;53.664;9.908;2022-12-22T15:09:25;7.72;;;5.50;;
20363;SDS011;10340;53.664;9.908;2022-12-22T15:11:54;9.67;;;6.20;;
20363;SDS011;10340;53.664;9.908;2022-12-22T15:14:30;11.37;;;6.70;;
20363;SDS011;10340;53.664;9.908;2022-12-22T15:16:59;10.52;;;6.82;;
20363;SDS011;10340;53.664;9.908;2022-12-22T15:19:28;9.98;;;5.85;;
20363;SDS011;10340;53.664;9.908;2022-12-22T15:21:57;11.57;;;6.88;;
20363;SDS011;10340;53.664;9.908;2022-12-22T15:24:24;10.17;;;6.37;;
20363;SDS011;10340;53.664;9.908;2022-12-22T15:26:51;8.23;;;5.50;;
20363;SDS011;10340;53.664;9.908;2022-12-22T15:29:18;6.35;;;5.65;;
20363;SDS011;10340;53.664;9.908;2022-12-22T15:31:47;7.47;;;5.35;;
20363;SDS011;10340;53.664;9.908;2022-12-22T15:34:15;6.90;;;5.47;;
20363;SDS011;10340;53.664;9.908;2022-12-22T15:36:47;9.55;;;5.53;;
20363;SDS011;10340;53.664;9.908;2022-12-22T15:39:21;8.95;;;5.50;;
20363;SDS011;10340;53.664;9.908;2022-12-22T15:41:49;8.27;;;5.70;;